Time;durP1;ratioP1;P1;durP2;ratioP2;P2;SDS_P1;SDS_P2;PMS_P1;PMS_P2;Temp;Humidity;BMP_temperature;BMP_pressure;BME280_temperature;BME280_humidity;BME280_pressure;Samples;Min_cycle;Max_cycle;Signal;HPM_P1;HPM_P2
2023/01/15 00:01:05;;;;;;;8.97;2.13;;;;;;;;;;4960181;28;20184;-79
2023/01/15 00:03:31;;;;;;;8.23;2.10;;;;;;;;;;4960553;28;20214;-80
2023/01/15 00:06:02;;;;;;;11.63;2.50;;;;;;;;;;4960158;28;20186;-79
2023/01/15 00:08:28;;;;;;;9.80;2.37;;;;;;;;;;4960270;28;20194;-79
2023/01/15 00:10:55;;;;;;;11.63;2.47;;;;;;;;;;4944383;28;20182;-79
2023/01/15 00:13:21;;;;;;;8.60;2.20;;;;;;;;;;4944398;28;20186;-80
2023/01/15 00:15:47;;;;;;;11.87;2.47;;;;;;;;;;4960202;28;20183;-79
2023/01/15 00:18:13;;;;;;;13.03;2.50;;;;;;;;;;4944375;28;20195;-79
2023/01/15 00:20:39;;;;;;;10.70;2.83;;;;;;;;;;4944560;28;20206;-79
2023/01/15 00:23:05;;;;;;;8.23;2.67;;;;;;;;;;4944126;28;20269;-79
2023/01/15 00:28:16;;;;;;;12.03;2.37;;;;;;;;;;4977415;28;20200;-84
2023/01/15 00:30:42;;;;;;;9.87;2.10;;;;;;;;;;4943986;28;20186;-83
2023/01/15 00:33:09;;;;;;;12.40;2.53;;;;;;;;;;4977141;28;20179;-84
2023/01/15 00:35:35;;;;;;;8.00;2.63;;;;;;;;;;4944012;28;20226;-83
2023/01/15 00:38:01;;;;;;;10.13;2.30;;;;;;;;;;4944082;28;20183;-83
2023/01/15 00:40:27;;;;;;;9.87;2.37;;;;;;;;;;4959804;28;20182;-83
2023/01/15 00:42:53;;;;;;;7.83;2.27;;;;;;;;;;4959475;28;20223;-84
2023/01/15 00:45:19;;;;;;;12.83;2.83;;;;;;;;;;4960042;28;20182;-79
2023/01/15 00:47:47;;;;;;;12.83;3.23;;;;;;;;;;4959812;28;20178;-79
2023/01/15 00:50:14;;;;;;;13.40;2.93;;;;;;;;;;4959670;28;20278;-79
2023/01/15 00:52:40;;;;;;;13.53;2.23;;;;;;;;;;4960053;28;20237;-79
2023/01/15 00:55:07;;;;;;;7.37;2.40;;;;;;;;;;4959564;28;20241;-79
2023/01/15 00:57:33;;;;;;;16.37;3.40;;;;;;;;;;4958965;28;20194;-80
2023/01/15 01:00:00;;;;;;;18.27;3.10;;;;;;;;;;4959561;28;20190;-83
2023/01/15 01:02:26;;;;;;;16.80;2.93;;;;;;;;;;4943402;28;20350;-85
2023/01/15 01:04:54;;;;;;;14.47;2.67;;;;;;;;;;4959659;28;20230;-85
2023/01/15 01:07:20;;;;;;;13.17;2.83;;;;;;;;;;4948705;28;20179;-85
2023/01/15 01:09:46;;;;;;;12.23;2.50;;;;;;;;;;4942951;28;20218;-85
2023/01/15 01:12:12;;;;;;;10.17;2.67;;;;;;;;;;4943646;28;20186;-85
2023/01/15 01:14:38;;;;;;;6.80;2.47;;;;;;;;;;4942327;28;20225;-84
2023/01/15 01:17:04;;;;;;;11.60;2.50;;;;;;;;;;4939859;28;20198;-83
2023/01/15 01:19:30;;;;;;;12.93;2.70;;;;;;;;;;4942715;28;20225;-84
2023/01/15 01:21:56;;;;;;;10.83;2.40;;;;;;;;;;4942509;28;20245;-83
2023/01/15 01:24:23;;;;;;;10.47;2.67;;;;;;;;;;4942854;28;20214;-83
2023/01/15 01:26:50;;;;;;;8.47;2.60;;;;;;;;;;4950414;28;20178;-83
2023/01/15 01:29:17;;;;;;;9.63;2.30;;;;;;;;;;4958565;28;20191;-84
2023/01/15 01:31:43;;;;;;;12.37;2.60;;;;;;;;;;4958287;28;20179;-84
2023/01/15 01:34:10;;;;;;;10.30;2.50;;;;;;;;;;4942470;28;20186;-83
2023/01/15 01:36:37;;;;;;;11.17;2.73;;;;;;;;;;4955939;28;20236;-83
2023/01/15 01:39:03;;;;;;;12.40;2.67;;;;;;;;;;4952867;28;20182;-83
2023/01/15 01:41:29;;;;;;;12.30;2.47;;;;;;;;;;4953240;28;20179;-83
2023/01/15 01:43:55;;;;;;;9.33;2.57;;;;;;;;;;4934286;29;20210;-83
2023/01/15 01:46:22;;;;;;;10.73;3.00;;;;;;;;;;4961823;28;20189;-83
2023/01/15 01:48:49;;;;;;;12.37;2.73;;;;;;;;;;4966864;28;20221;-84
2023/01/15 01:51:16;;;;;;;10.13;2.70;;;;;;;;;;4942267;29;20207;-80
2023/01/15 01:53:42;;;;;;;13.20;2.90;;;;;;;;;;4956023;28;20237;-80
2023/01/15 01:56:10;;;;;;;16.70;3.23;;;;;;;;;;4958501;28;20190;-80
2023/01/15 01:58:36;;;;;;;15.17;3.00;;;;;;;;;;4958150;28;20202;-80
2023/01/15 02:01:02;;;;;;;11.03;2.60;;;;;;;;;;4949493;28;20182;-80
2023/01/15 02:03:34;;;;;;;11.23;2.60;;;;;;;;;;4955417;28;20206;-79
2023/01/15 02:06:02;;;;;;;11.87;3.03;;;;;;;;;;4941811;28;20194;-79
2023/01/15 02:08:31;;;;;;;10.73;2.37;;;;;;;;;;4972075;28;20180;-80
2023/01/15 02:10:57;;;;;;;10.80;3.00;;;;;;;;;;4938967;29;20214;-80
2023/01/15 02:13:23;;;;;;;14.33;2.63;;;;;;;;;;4968405;28;20186;-80
2023/01/15 02:16:12;;;;;;;14.57;2.73;;;;;;;;;;4958139;28;20189;-80
2023/01/15 02:18:41;;;;;;;11.60;2.47;;;;;;;;;;4948524;28;20190;-80
2023/01/15 02:21:13;;;;;;;11.37;3.00;;;;;;;;;;4975285;28;20178;-80
2023/01/15 02:23:42;;;;;;;13.27;2.80;;;;;;;;;;4975611;28;20237;-79
2023/01/15 02:26:17;;;;;;;13.13;2.70;;;;;;;;;;4958068;28;20179;-80
2023/01/15 02:28:45;;;;;;;11.93;2.57;;;;;;;;;;4958102;28;20182;-79
2023/01/15 02:31:29;;;;;;;9.90;2.53;;;;;;;;;;4958188;28;20182;-84
2023/01/15 02:34:02;;;;;;;12.20;2.47;;;;;;;;;;4957962;28;20183;-84
2023/01/15 02:36:29;;;;;;;11.10;2.57;;;;;;;;;;4957971;28;20265;-85
2023/01/15 02:38:57;;;;;;;13.60;3.17;;;;;;;;;;4958303;28;20233;-85
2023/01/15 02:41:30;;;;;;;13.23;2.60;;;;;;;;;;4958009;28;20199;-84
2023/01/15 02:43:57;;;;;;;9.67;2.40;;;;;;;;;;4957783;28;20226;-84
2023/01/15 02:46:26;;;;;;;12.77;2.20;;;;;;;;;;4941482;28;20285;-84
2023/01/15 02:48:54;;;;;;;15.17;2.47;;;;;;;;;;4957936;28;20182;-84
2023/01/15 02:51:23;;;;;;;10.77;2.40;;;;;;;;;;4957906;28;20191;-85
2023/01/15 02:53:50;;;;;;;7.87;2.10;;;;;;;;;;4957096;28;20186;-85
2023/01/15 02:56:18;;;;;;;11.10;2.53;;;;;;;;;;4958287;28;20229;-85
2023/01/15 02:58:45;;;;;;;11.97;2.40;;;;;;;;;;4957471;28;20285;-83
2023/01/15 03:01:13;;;;;;;14.43;2.70;;;;;;;;;;4957102;28;20277;-83
2023/01/15 03:03:51;;;;;;;10.77;2.40;;;;;;;;;;4957030;28;20202;-83
2023/01/15 03:06:47;;;;;;;7.13;2.70;;;;;;;;;;4957454;28;20274;-80
2023/01/15 03:09:14;;;;;;;12.47;2.73;;;;;;;;;;4940929;28;20218;-80
2023/01/15 03:11:44;;;;;;;14.93;3.00;;;;;;;;;;4941583;28;20202;-80
2023/01/15 03:14:19;;;;;;;11.37;2.30;;;;;;;;;;4976370;28;20237;-80
2023/01/15 03:16:49;;;;;;;10.27;2.00;;;;;;;;;;4960878;28;20189;-80
2023/01/15 03:19:18;;;;;;;9.67;2.33;;;;;;;;;;4961232;28;20241;-80
2023/01/15 03:21:47;;;;;;;19.03;3.00;;;;;;;;;;4960915;28;20234;-80
2023/01/15 03:24:17;;;;;;;11.10;2.70;;;;;;;;;;4960223;28;20191;-80
2023/01/15 03:26:43;;;;;;;10.60;2.63;;;;;;;;;;4960708;28;20183;-80
2023/01/15 03:29:10;;;;;;;12.80;2.20;;;;;;;;;;4944386;28;20183;-80
2023/01/15 03:31:36;;;;;;;8.10;2.47;;;;;;;;;;4961243;28;20186;-84
2023/01/15 03:34:02;;;;;;;12.83;2.30;;;;;;;;;;4944039;28;20201;-85
2023/01/15 03:36:28;;;;;;;9.90;2.37;;;;;;;;;;4975579;28;20310;-85
2023/01/15 03:38:54;;;;;;;11.70;2.47;;;;;;;;;;4960774;28;20281;-85
2023/01/15 03:41:26;;;;;;;14.13;2.87;;;;;;;;;;4944771;28;20287;-85
2023/01/15 03:44:25;;;;;;;10.80;2.50;;;;;;;;;;4960459;28;20220;-85
2023/01/15 03:46:58;;;;;;;11.60;2.20;;;;;;;;;;4900911;29;20198;-79
2023/01/15 03:49:40;;;;;;;11.83;2.73;;;;;;;;;;4949086;28;20198;-79
2023/01/15 03:52:27;;;;;;;8.93;2.13;;;;;;;;;;4977507;28;20206;-79
2023/01/15 03:55:05;;;;;;;8.57;2.17;;;;;;;;;;4938947;28;20285;-79
2023/01/15 03:57:37;;;;;;;13.40;2.80;;;;;;;;;;4960287;28;20225;-79
2023/01/15 04:00:08;;;;;;;10.23;2.13;;;;;;;;;;4960581;28;20273;-79
2023/01/15 04:02:35;;;;;;;12.80;2.50;;;;;;;;;;4960186;28;20213;-79
2023/01/15 04:05:01;;;;;;;10.50;2.53;;;;;;;;;;4960690;28;20230;-83
2023/01/15 04:07:27;;;;;;;12.00;2.73;;;;;;;;;;4944974;28;20190;-83
2023/01/15 04:09:53;;;;;;;19.00;2.70;;;;;;;;;;4944276;28;20191;-82
2023/01/15 04:12:19;;;;;;;6.73;2.30;;;;;;;;;;4977356;28;20178;-83
2023/01/15 04:14:45;;;;;;;13.10;2.73;;;;;;;;;;4944866;28;20198;-83
2023/01/15 04:17:11;;;;;;;12.77;2.50;;;;;;;;;;4944473;28;20191;-83
2023/01/15 04:19:37;;;;;;;10.30;2.50;;;;;;;;;;4944312;28;20241;-83
2023/01/15 04:22:04;;;;;;;11.70;2.67;;;;;;;;;;4960043;28;20210;-85
2023/01/15 04:24:30;;;;;;;9.67;2.33;;;;;;;;;;4944086;28;20186;-85
2023/01/15 04:26:56;;;;;;;9.43;2.17;;;;;;;;;;4977257;28;20257;-84
2023/01/15 04:29:22;;;;;;;12.60;3.00;;;;;;;;;;4944577;28;20252;-84
2023/01/15 04:31:51;;;;;;;9.57;2.53;;;;;;;;;;4943858;28;20187;-85
2023/01/15 04:34:17;;;;;;;12.93;2.83;;;;;;;;;;4944460;28;20189;-84
2023/01/15 04:36:45;;;;;;;10.10;2.60;;;;;;;;;;4959785;28;20223;-79
2023/01/15 04:39:11;;;;;;;7.63;2.17;;;;;;;;;;4944193;28;20183;-79
2023/01/15 04:44:25;;;;;;;9.97;2.67;;;;;;;;;;4962689;28;20225;-80
2023/01/15 04:46:52;;;;;;;15.17;2.87;;;;;;;;;;4944237;28;20178;-80
2023/01/15 04:49:19;;;;;;;13.10;3.10;;;;;;;;;;4959232;28;20322;-80
2023/01/15 04:51:45;;;;;;;13.60;2.63;;;;;;;;;;4959101;28;20229;-79
2023/01/15 04:54:12;;;;;;;14.83;2.60;;;;;;;;;;4960104;28;20225;-79
2023/01/15 04:56:42;;;;;;;14.03;2.83;;;;;;;;;;4976302;28;20193;-79
2023/01/15 04:59:08;;;;;;;9.10;2.50;;;;;;;;;;4959437;28;20269;-79
2023/01/15 05:01:34;;;;;;;12.37;2.70;;;;;;;;;;4942834;28;20278;-79
2023/01/15 05:04:01;;;;;;;10.87;2.20;;;;;;;;;;4976462;28;20232;-79
2023/01/15 05:06:27;;;;;;;12.40;2.67;;;;;;;;;;4958570;28;20258;-79
2023/01/15 05:08:53;;;;;;;14.50;2.60;;;;;;;;;;4976530;28;20206;-79
2023/01/15 05:11:19;;;;;;;11.83;2.40;;;;;;;;;;4942392;28;20199;-79
2023/01/15 05:13:45;;;;;;;8.40;2.60;;;;;;;;;;4943235;28;20201;-79
2023/01/15 05:16:13;;;;;;;8.40;2.33;;;;;;;;;;4958249;28;20186;-79
2023/01/15 05:18:39;;;;;;;8.17;2.47;;;;;;;;;;4958760;28;20218;-79
2023/01/15 05:21:05;;;;;;;9.97;2.40;;;;;;;;;;4958643;28;20186;-79
2023/01/15 05:23:31;;;;;;;10.33;2.60;;;;;;;;;;4942928;28;20214;-79
2023/01/15 05:25:57;;;;;;;9.00;2.80;;;;;;;;;;4943005;28;20190;-79
2023/01/15 05:28:23;;;;;;;10.27;2.70;;;;;;;;;;4976325;28;20182;-79
2023/01/15 05:30:49;;;;;;;11.27;2.80;;;;;;;;;;4958656;28;20189;-79
2023/01/15 05:33:15;;;;;;;11.27;2.87;;;;;;;;;;4958604;28;20194;-79
2023/01/15 05:35:41;;;;;;;13.43;2.87;;;;;;;;;;4958523;28;20230;-79
2023/01/15 05:38:07;;;;;;;17.47;3.00;;;;;;;;;;4942324;28;20195;-79
2023/01/15 05:40:33;;;;;;;8.67;2.40;;;;;;;;;;4975581;28;20194;-79
2023/01/15 05:42:59;;;;;;;10.47;2.47;;;;;;;;;;4958779;28;20250;-79
2023/01/15 05:45:25;;;;;;;13.40;2.60;;;;;;;;;;4959004;28;20193;-79
2023/01/15 05:47:52;;;;;;;13.70;2.70;;;;;;;;;;4958411;28;20186;-79
2023/01/15 05:50:18;;;;;;;7.17;2.00;;;;;;;;;;4958267;28;20278;-79
2023/01/15 05:52:44;;;;;;;9.47;2.40;;;;;;;;;;4975356;28;20249;-79
2023/01/15 05:55:10;;;;;;;11.03;2.37;;;;;;;;;;4958400;28;20241;-80
2023/01/15 05:57:36;;;;;;;16.17;2.80;;;;;;;;;;4975427;28;20187;-80
2023/01/15 06:00:04;;;;;;;12.27;2.47;;;;;;;;;;4958383;28;20191;-79
2023/01/15 06:02:30;;;;;;;11.50;2.60;;;;;;;;;;4957979;28;20213;-79
2023/01/15 06:04:56;;;;;;;12.97;2.50;;;;;;;;;;4942385;28;20195;-79
2023/01/15 06:07:22;;;;;;;12.47;2.70;;;;;;;;;;4958324;28;20197;-85
2023/01/15 06:09:50;;;;;;;11.53;2.80;;;;;;;;;;4942241;28;20178;-85
2023/01/15 06:12:16;;;;;;;11.07;2.40;;;;;;;;;;4945971;28;20254;-85
2023/01/15 06:14:42;;;;;;;12.63;2.73;;;;;;;;;;4961289;28;20280;-85
2023/01/15 06:17:08;;;;;;;15.17;3.00;;;;;;;;;;4957961;28;20254;-83
2023/01/15 06:19:34;;;;;;;11.20;2.70;;;;;;;;;;4957890;28;20298;-83
2023/01/15 06:22:00;;;;;;;10.73;2.40;;;;;;;;;;4974226;28;20194;-83
2023/01/15 06:24:26;;;;;;;8.90;2.10;;;;;;;;;;4941860;28;20197;-83
2023/01/15 06:26:52;;;;;;;10.37;2.50;;;;;;;;;;4940469;28;20194;-82
2023/01/15 06:29:19;;;;;;;6.93;2.10;;;;;;;;;;4975068;28;20177;-83
2023/01/15 06:31:46;;;;;;;10.90;2.73;;;;;;;;;;4940775;28;20194;-83
2023/01/15 06:34:12;;;;;;;10.33;2.50;;;;;;;;;;4974287;28;20186;-80
2023/01/15 06:36:38;;;;;;;11.17;2.30;;;;;;;;;;4941896;28;20230;-80
2023/01/15 06:39:04;;;;;;;10.67;2.33;;;;;;;;;;4941979;28;20301;-80
2023/01/15 06:47:21;;;;;;;7.97;2.33;;;;;;;;;;4956266;28;20187;-82
2023/01/15 06:49:51;;;;;;;10.97;2.30;;;;;;;;;;4942379;29;20234;-79
2023/01/15 06:52:17;;;;;;;13.57;2.50;;;;;;;;;;4961469;28;20233;-79
2023/01/15 06:54:43;;;;;;;10.70;2.60;;;;;;;;;;4935119;28;20181;-78
2023/01/15 06:57:09;;;;;;;13.07;2.00;;;;;;;;;;4977063;28;20210;-78
2023/01/15 06:59:36;;;;;;;8.20;1.83;;;;;;;;;;4932441;28;20183;-79
2023/01/15 07:02:02;;;;;;;9.37;2.40;;;;;;;;;;4963024;28;20187;-78
2023/01/15 07:04:28;;;;;;;7.80;2.37;;;;;;;;;;4953352;28;20189;-78
2023/01/15 07:06:55;;;;;;;11.30;2.47;;;;;;;;;;4972867;28;20209;-84
2023/01/15 07:09:21;;;;;;;12.00;2.50;;;;;;;;;;4963850;28;20190;-84
2023/01/15 07:11:50;;;;;;;15.50;2.63;;;;;;;;;;4945179;28;20213;-84
2023/01/15 07:14:19;;;;;;;13.40;2.83;;;;;;;;;;4945037;28;20202;-85
2023/01/15 07:16:45;;;;;;;11.90;2.70;;;;;;;;;;4951699;28;20317;-85
2023/01/15 07:19:12;;;;;;;10.07;2.50;;;;;;;;;;4964034;28;20190;-85
2023/01/15 07:21:38;;;;;;;10.80;2.43;;;;;;;;;;4944291;28;20205;-85
2023/01/15 07:24:07;;;;;;;11.77;2.53;;;;;;;;;;4954110;29;20207;-85
2023/01/15 07:26:33;;;;;;;8.37;2.67;;;;;;;;;;4926562;29;20242;-84
2023/01/15 07:28:59;;;;;;;14.63;2.77;;;;;;;;;;4958618;28;20199;-85
2023/01/15 07:31:25;;;;;;;11.17;2.37;;;;;;;;;;4960779;28;20190;-84
2023/01/15 07:33:51;;;;;;;13.97;2.90;;;;;;;;;;4959693;28;20286;-84
2023/01/15 07:36:17;;;;;;;14.23;2.87;;;;;;;;;;4955475;28;20348;-85
2023/01/15 07:38:43;;;;;;;13.53;2.60;;;;;;;;;;4960455;28;20271;-84
2023/01/15 07:52:07;;;;;;;12.13;2.60;;;;;;;;;;4959133;28;20209;-83
2023/01/15 07:54:33;;;;;;;10.67;2.30;;;;;;;;;;4939433;29;20183;-83
2023/01/15 07:56:59;;;;;;;13.40;2.77;;;;;;;;;;4944313;28;20174;-78
2023/01/15 07:59:25;;;;;;;18.73;2.83;;;;;;;;;;4956907;28;20194;-78
2023/01/15 08:01:51;;;;;;;11.27;2.77;;;;;;;;;;4944136;28;20265;-78
2023/01/15 08:04:17;;;;;;;11.40;2.60;;;;;;;;;;4959336;28;20187;-78
2023/01/15 08:06:43;;;;;;;11.80;2.80;;;;;;;;;;4942808;28;20236;-78
2023/01/15 08:09:09;;;;;;;9.83;2.33;;;;;;;;;;4969192;28;20183;-78
2023/01/15 08:17:04;;;;;;;11.67;2.30;;;;;;;;;;4958999;28;20221;-78
2023/01/15 08:19:31;;;;;;;13.23;2.70;;;;;;;;;;4957363;28;20201;-78
2023/01/15 08:21:57;;;;;;;12.20;2.37;;;;;;;;;;4946588;29;20227;-78
2023/01/15 08:24:23;;;;;;;9.27;2.40;;;;;;;;;;4948876;28;20205;-78
2023/01/15 08:26:49;;;;;;;12.10;2.77;;;;;;;;;;4957085;28;20193;-78
2023/01/15 08:29:15;;;;;;;13.77;2.37;;;;;;;;;;4976585;28;20187;-78
2023/01/15 08:31:41;;;;;;;11.07;2.07;;;;;;;;;;4941781;28;20271;-78
2023/01/15 08:34:08;;;;;;;12.97;2.47;;;;;;;;;;4958132;28;20190;-78
2023/01/15 08:36:34;;;;;;;12.87;2.10;;;;;;;;;;4959286;28;20317;-78
2023/01/15 08:39:00;;;;;;;8.50;2.40;;;;;;;;;;4976988;28;20182;-78
2023/01/15 08:41:26;;;;;;;12.33;2.20;;;;;;;;;;4943809;28;20186;-78
2023/01/15 08:43:52;;;;;;;11.70;2.67;;;;;;;;;;4968678;28;20301;-78
2023/01/15 08:46:18;;;;;;;11.30;2.40;;;;;;;;;;4943794;28;20190;-78
2023/01/15 08:48:44;;;;;;;9.00;2.27;;;;;;;;;;4959495;28;20183;-83
2023/01/15 08:51:11;;;;;;;8.77;2.27;;;;;;;;;;4951203;28;20179;-82
2023/01/15 08:53:37;;;;;;;10.07;2.10;;;;;;;;;;4952518;28;20186;-83
2023/01/15 08:56:03;;;;;;;8.90;2.20;;;;;;;;;;4943473;28;20201;-82
2023/01/15 08:58:30;;;;;;;12.90;2.70;;;;;;;;;;4959606;28;20277;-83
2023/01/15 09:00:56;;;;;;;9.40;2.00;;;;;;;;;;4937397;28;20205;-83
2023/01/15 09:03:22;;;;;;;12.37;2.30;;;;;;;;;;4959237;28;20261;-83
2023/01/15 09:05:48;;;;;;;11.37;2.43;;;;;;;;;;4959239;28;20201;-83
2023/01/15 09:08:14;;;;;;;8.80;2.10;;;;;;;;;;4959115;28;20250;-84
2023/01/15 09:10:40;;;;;;;10.43;2.40;;;;;;;;;;4958616;28;20257;-84
2023/01/15 09:13:06;;;;;;;10.83;2.53;;;;;;;;;;4943541;28;20192;-84
2023/01/15 09:15:33;;;;;;;12.03;2.40;;;;;;;;;;4943147;28;20217;-84
2023/01/15 09:17:59;;;;;;;8.30;2.30;;;;;;;;;;4959250;28;20191;-84
2023/01/15 09:20:25;;;;;;;8.23;2.13;;;;;;;;;;4958867;28;20194;-79
2023/01/15 09:22:52;;;;;;;9.47;2.20;;;;;;;;;;4958904;28;20325;-79
2023/01/15 09:25:18;;;;;;;9.43;2.30;;;;;;;;;;4958516;28;20182;-79
2023/01/15 09:27:45;;;;;;;10.87;2.07;;;;;;;;;;4959061;28;20273;-79
2023/01/15 09:30:19;;;;;;;7.80;1.90;;;;;;;;;;4958821;28;20186;-79
2023/01/15 09:32:45;;;;;;;7.60;2.00;;;;;;;;;;4975961;28;20179;-79
2023/01/15 09:35:11;;;;;;;8.77;2.20;;;;;;;;;;4958577;28;20182;-79
2023/01/15 09:37:37;;;;;;;6.23;1.90;;;;;;;;;;4958950;28;20277;-85
2023/01/15 09:40:05;;;;;;;6.53;2.37;;;;;;;;;;4943159;28;20194;-85
2023/01/15 09:42:34;;;;;;;8.77;2.07;;;;;;;;;;4943123;28;20203;-85
2023/01/15 09:45:16;;;;;;;9.00;2.17;;;;;;;;;;4958420;28;20193;-85
2023/01/15 09:47:54;;;;;;;11.20;2.70;;;;;;;;;;4955665;29;20242;-85
2023/01/15 09:50:26;;;;;;;9.25;2.65;;;;;;;;;;4964298;28;20441;-84
2023/01/15 09:52:58;;;;;;;6.80;2.17;;;;;;;;;;4958746;28;20266;-85
2023/01/15 09:55:29;;;;;;;6.30;2.17;;;;;;;;;;4958473;28;20317;-79
2023/01/15 09:57:57;;;;;;;8.95;2.50;;;;;;;;;;4975559;28;20421;-79
2023/01/15 10:00:25;;;;;;;8.27;2.30;;;;;;;;;;4958005;28;20174;-79
2023/01/15 10:03:09;;;;;;;9.53;2.30;;;;;;;;;;4958486;28;20207;-79
2023/01/15 10:05:37;;;;;;;11.27;2.60;;;;;;;;;;4957965;28;20430;-79
2023/01/15 10:08:06;;;;;;;9.25;2.80;;;;;;;;;;4957974;28;20419;-79
2023/01/15 10:10:40;;;;;;;10.93;2.58;;;;;;;;;;4957145;28;20426;-79
2023/01/15 10:13:10;;;;;;;9.17;2.53;;;;;;;;;;4975087;28;20449;-79
2023/01/15 10:15:40;;;;;;;11.18;2.80;;;;;;;;;;4957589;28;20449;-79
2023/01/15 10:18:07;;;;;;;11.30;2.70;;;;;;;;;;4974573;28;20418;-79
2023/01/15 10:20:42;;;;;;;7.63;2.13;;;;;;;;;;4971025;28;20176;-79
2023/01/15 10:23:15;;;;;;;6.07;2.33;;;;;;;;;;4955656;29;20263;-79
2023/01/15 10:25:48;;;;;;;6.77;2.10;;;;;;;;;;4956007;29;20250;-79
2023/01/15 10:28:27;;;;;;;6.27;2.10;;;;;;;;;;4952154;28;20248;-79
2023/01/15 10:30:54;;;;;;;8.00;2.30;;;;;;;;;;4957550;28;20430;-79
2023/01/15 10:33:32;;;;;;;6.87;2.27;;;;;;;;;;4973452;28;20198;-79
2023/01/15 10:36:01;;;;;;;8.77;2.50;;;;;;;;;;4943940;28;20541;-79
2023/01/15 10:38:43;;;;;;;9.27;2.53;;;;;;;;;;4974942;28;20257;-85
2023/01/15 10:41:15;;;;;;;8.25;2.47;;;;;;;;;;4956513;28;20426;-85
2023/01/15 10:43:41;;;;;;;8.40;2.50;;;;;;;;;;4956933;28;20433;-79
2023/01/15 10:46:15;;;;;;;8.80;2.47;;;;;;;;;;4969331;28;20455;-79
2023/01/15 10:48:44;;;;;;;7.17;2.50;;;;;;;;;;4938379;29;20185;-79
2023/01/15 10:51:16;;;;;;;10.68;2.53;;;;;;;;;;4977552;23;20550;-85
2023/01/15 10:53:49;;;;;;;9.32;2.58;;;;;;;;;;4995016;28;20434;-86
2023/01/15 10:56:21;;;;;;;9.13;2.60;;;;;;;;;;5007062;28;20413;-85
2023/01/15 10:58:55;;;;;;;10.53;2.90;;;;;;;;;;4975830;28;20404;-85
2023/01/15 11:01:23;;;;;;;9.52;2.60;;;;;;;;;;4975909;28;20424;-84
2023/01/15 11:03:49;;;;;;;10.38;2.80;;;;;;;;;;4981917;28;20443;-84
2023/01/15 11:06:19;;;;;;;12.05;2.67;;;;;;;;;;4964781;28;20419;-79
2023/01/15 11:08:50;;;;;;;10.38;3.03;;;;;;;;;;4995469;28;20399;-84
2023/01/15 11:11:16;;;;;;;7.57;2.43;;;;;;;;;;4995815;28;20584;-84
2023/01/15 11:21:49;;;;;;;8.60;2.50;;;;;;;;;;4999564;28;20459;-85
2023/01/15 11:24:16;;;;;;;5.07;2.30;;;;;;;;;;4966854;28;20210;-86
2023/01/15 11:26:46;;;;;;;6.97;2.60;;;;;;;;;;4977393;28;20201;-85
2023/01/15 11:29:15;;;;;;;12.70;2.23;;;;;;;;;;4994200;28;20224;-86
2023/01/15 11:31:41;;;;;;;10.07;2.50;;;;;;;;;;4981519;28;20415;-85
2023/01/15 11:34:17;;;;;;;12.23;2.60;;;;;;;;;;4976432;28;20439;-85
2023/01/15 11:36:43;;;;;;;7.33;2.43;;;;;;;;;;4981043;28;20235;-85
2023/01/15 11:39:26;;;;;;;7.30;2.20;;;;;;;;;;4964235;28;20181;-85
2023/01/15 11:50:44;;;;;;;6.60;2.00;;;;;;;;;;5015204;28;20304;-79
2023/01/15 11:53:17;;;;;;;8.60;2.17;;;;;;;;;;4990237;28;20240;-79
2023/01/15 11:55:51;;;;;;;7.03;2.40;;;;;;;;;;4989287;28;20300;-79
2023/01/15 11:58:17;;;;;;;11.48;2.80;;;;;;;;;;5005811;28;20445;-78
2023/01/15 12:00:44;;;;;;;10.17;2.73;;;;;;;;;;4999273;28;20184;-79
2023/01/15 12:03:16;;;;;;;9.93;2.30;;;;;;;;;;4982507;28;20292;-79
2023/01/15 12:05:48;;;;;;;10.20;2.30;;;;;;;;;;4983329;28;20182;-79
2023/01/15 12:08:21;;;;;;;10.53;2.00;;;;;;;;;;4998954;28;20569;-78
2023/01/15 12:11:04;;;;;;;10.90;2.90;;;;;;;;;;4994456;28;20182;-78
2023/01/15 12:13:39;;;;;;;12.20;2.03;;;;;;;;;;4979240;28;20197;-79
2023/01/15 12:16:05;;;;;;;5.47;1.80;;;;;;;;;;4991138;28;20261;-79
2023/01/15 12:18:51;;;;;;;11.90;2.20;;;;;;;;;;4998906;28;20185;-79
2023/01/15 12:21:36;;;;;;;9.10;2.10;;;;;;;;;;4990893;28;20182;-79
2023/01/15 12:24:21;;;;;;;10.03;2.33;;;;;;;;;;4979554;28;20232;-83
2023/01/15 12:26:47;;;;;;;6.87;1.93;;;;;;;;;;4983441;28;20192;-83
2023/01/15 12:29:23;;;;;;;9.43;2.17;;;;;;;;;;4979494;28;20177;-83
2023/01/15 12:31:51;;;;;;;7.90;2.37;;;;;;;;;;4987708;28;20185;-83
2023/01/15 12:34:47;;;;;;;6.80;1.60;;;;;;;;;;4979219;28;20252;-83
2023/01/15 12:37:48;;;;;;;6.47;1.90;;;;;;;;;;4974139;28;20189;-83
2023/01/15 12:40:14;;;;;;;7.13;1.97;;;;;;;;;;4911495;29;20266;-79
2023/01/15 12:45:36;;;;;;;7.27;1.93;;;;;;;;;;4999692;28;20213;-79
2023/01/15 12:48:12;;;;;;;8.10;2.30;;;;;;;;;;4987614;28;20182;-79
2023/01/15 12:50:43;;;;;;;4.47;1.90;;;;;;;;;;4983433;28;20230;-79
2023/01/15 12:53:09;;;;;;;7.07;1.80;;;;;;;;;;5015780;28;20185;-78
2023/01/15 12:55:41;;;;;;;5.03;1.60;;;;;;;;;;4998393;28;20193;-79
2023/01/15 12:58:12;;;;;;;5.53;1.80;;;;;;;;;;4995524;28;20201;-83
2023/01/15 13:00:41;;;;;;;4.67;1.90;;;;;;;;;;4996702;28;20271;-82
2023/01/15 13:03:10;;;;;;;5.80;1.80;;;;;;;;;;4990755;28;20271;-83
2023/01/15 13:05:41;;;;;;;9.40;2.43;;;;;;;;;;4997855;28;20208;-82
2023/01/15 13:08:15;;;;;;;6.67;2.10;;;;;;;;;;4992391;28;20268;-83
2023/01/15 13:10:42;;;;;;;5.60;1.80;;;;;;;;;;4997757;28;20187;-82
2023/01/15 13:13:15;;;;;;;7.60;2.07;;;;;;;;;;4992341;28;20189;-79
2023/01/15 13:15:55;;;;;;;7.27;1.87;;;;;;;;;;4978006;28;20178;-79
2023/01/15 13:18:26;;;;;;;9.83;2.50;;;;;;;;;;4979170;28;20186;-79
2023/01/15 13:20:54;;;;;;;8.63;2.47;;;;;;;;;;4995476;28;20189;-79
2023/01/15 13:23:39;;;;;;;5.90;1.93;;;;;;;;;;4983544;28;20495;-79
2023/01/15 13:26:11;;;;;;;8.07;2.40;;;;;;;;;;4997457;28;20177;-79
2023/01/15 13:28:51;;;;;;;6.37;2.13;;;;;;;;;;5007073;28;20208;-79
2023/01/15 13:31:30;;;;;;;5.27;1.97;;;;;;;;;;4978189;28;20180;-85
2023/01/15 13:33:56;;;;;;;6.63;2.10;;;;;;;;;;4986767;28;20243;-85
2023/01/15 13:36:32;;;;;;;7.20;2.27;;;;;;;;;;4997585;28;20185;-82
2023/01/15 13:39:00;;;;;;;7.70;2.33;;;;;;;;;;5013937;28;20195;-82
2023/01/15 13:44:21;;;;;;;5.30;1.90;;;;;;;;;;5009192;28;20271;-83
2023/01/15 13:46:49;;;;;;;9.60;2.20;;;;;;;;;;4977725;28;20178;-79
2023/01/15 13:49:19;;;;;;;6.73;2.30;;;;;;;;;;5005008;28;20212;-79
2023/01/15 13:51:47;;;;;;;5.83;2.10;;;;;;;;;;4979378;28;20283;-79
2023/01/15 13:54:16;;;;;;;5.97;2.00;;;;;;;;;;4987237;28;20181;-79
2023/01/15 13:56:43;;;;;;;6.83;2.23;;;;;;;;;;4996687;28;20182;-79
2023/01/15 13:59:28;;;;;;;8.40;2.00;;;;;;;;;;4994653;28;20181;-79
2023/01/15 14:01:54;;;;;;;5.10;2.00;;;;;;;;;;4996767;28;20185;-79
2023/01/15 14:04:32;;;;;;;7.90;2.10;;;;;;;;;;4977172;28;20210;-85
2023/01/15 14:06:58;;;;;;;8.07;1.90;;;;;;;;;;4977886;28;20188;-85
2023/01/15 14:09:24;;;;;;;7.13;2.10;;;;;;;;;;4977258;28;20264;-85
2023/01/15 14:12:05;;;;;;;6.80;2.20;;;;;;;;;;4977705;28;20224;-85
2023/01/15 14:14:44;;;;;;;10.57;2.50;;;;;;;;;;4987542;28;20181;-85
2023/01/15 14:17:11;;;;;;;7.17;2.43;;;;;;;;;;4997502;28;20169;-85
2023/01/15 14:19:43;;;;;;;7.63;2.20;;;;;;;;;;4993945;28;20181;-85
2023/01/15 14:22:13;;;;;;;6.33;2.30;;;;;;;;;;4979596;28;20245;-82
2023/01/15 14:24:39;;;;;;;6.07;2.17;;;;;;;;;;4977669;28;20182;-82
2023/01/15 14:27:15;;;;;;;6.30;2.20;;;;;;;;;;4994732;28;20205;-82
2023/01/15 14:29:41;;;;;;;9.73;2.40;;;;;;;;;;4994549;28;20257;-82
2023/01/15 14:32:11;;;;;;;7.77;2.40;;;;;;;;;;4994990;28;20245;-82
2023/01/15 14:34:37;;;;;;;6.97;2.30;;;;;;;;;;4985050;28;20199;-83
2023/01/15 14:37:20;;;;;;;6.63;2.33;;;;;;;;;;4997183;28;20184;-78
2023/01/15 14:39:51;;;;;;;7.47;2.30;;;;;;;;;;4988530;28;20281;-78
2023/01/15 14:45:12;;;;;;;6.03;2.30;;;;;;;;;;5004968;28;20188;-78
2023/01/15 14:47:51;;;;;;;8.17;2.20;;;;;;;;;;4994696;28;20197;-79
2023/01/15 14:50:23;;;;;;;8.97;2.50;;;;;;;;;;4985968;28;20225;-78
2023/01/15 14:52:50;;;;;;;5.87;2.20;;;;;;;;;;4994771;28;20194;-78
2023/01/15 14:55:17;;;;;;;5.90;2.20;;;;;;;;;;4987215;28;20181;-79
2023/01/15 14:57:47;;;;;;;8.53;2.17;;;;;;;;;;4994713;28;20189;-79
2023/01/15 15:00:18;;;;;;;7.60;2.50;;;;;;;;;;4988550;28;20281;-79
2023/01/15 15:02:44;;;;;;;9.60;2.47;;;;;;;;;;4994252;28;20210;-79
2023/01/15 15:05:15;;;;;;;10.30;4.10;;;;;;;;;;4966275;28;20183;-79
2023/01/15 15:07:47;;;;;;;8.80;2.90;;;;;;;;;;4994314;28;20209;-79
2023/01/15 15:10:16;;;;;;;8.53;2.50;;;;;;;;;;4980922;28;20213;-82
2023/01/15 15:12:51;;;;;;;10.03;2.47;;;;;;;;;;4998273;28;20197;-82
2023/01/15 15:15:26;;;;;;;7.87;2.20;;;;;;;;;;4981581;28;20228;-85
2023/01/15 15:18:02;;;;;;;11.97;2.70;;;;;;;;;;4991614;28;20185;-85
2023/01/15 15:20:47;;;;;;;6.90;2.47;;;;;;;;;;4999900;28;20196;-85
2023/01/15 15:23:37;;;;;;;7.87;2.53;;;;;;;;;;4998772;28;20205;-85
2023/01/15 15:26:05;;;;;;;11.00;3.00;;;;;;;;;;4988521;28;20249;-84
2023/01/15 15:28:31;;;;;;;7.83;2.50;;;;;;;;;;4981074;28;20204;-79
2023/01/15 15:31:00;;;;;;;8.87;2.47;;;;;;;;;;4978188;28;20190;-79
2023/01/15 15:33:27;;;;;;;12.63;2.73;;;;;;;;;;4980792;28;20237;-79
2023/01/15 15:35:55;;;;;;;7.33;2.50;;;;;;;;;;4980779;28;20192;-79
2023/01/15 15:38:22;;;;;;;7.37;2.40;;;;;;;;;;4997585;28;20249;-79
2023/01/15 15:40:51;;;;;;;7.53;2.70;;;;;;;;;;5004610;28;20185;-79